createdAt,value
2022-12-26T00:00:48.512Z,6.95
2022-12-26T00:03:16.986Z,8.13
2022-12-26T00:05:43.469Z,6.68
2022-12-26T00:08:09.933Z,7.03
2022-12-26T00:10:36.408Z,6.57
2022-12-26T00:13:37.082Z,6.03
2022-12-26T00:15:50.267Z,6.70
2022-12-26T00:18:16.765Z,6.25
2022-12-26T00:23:28.997Z,6.03
2022-12-26T00:25:55.370Z,6.90
2022-12-26T00:28:21.735Z,6.90
2022-12-26T00:30:48.087Z,5.03
2022-12-26T00:33:14.465Z,5.68
2022-12-26T00:35:40.856Z,6.72
2022-12-26T00:38:07.877Z,6.70
2022-12-26T00:40:34.220Z,6.40
2022-12-26T00:43:00.574Z,6.20
2022-12-26T00:45:27.429Z,6.35
2022-12-26T00:47:53.825Z,5.85
2022-12-26T00:50:20.247Z,6.47
2022-12-26T00:52:46.851Z,6.18
2022-12-26T00:55:13.379Z,6.22
2022-12-26T00:57:39.808Z,6.13
2022-12-26T01:00:06.758Z,7.70
2022-12-26T01:02:33.587Z,6.35
2022-12-26T01:05:00.378Z,6.32
2022-12-26T01:07:27.437Z,5.90
2022-12-26T01:09:53.893Z,6.25
2022-12-26T01:12:20.546Z,6.50
2022-12-26T01:14:47.337Z,5.25
2022-12-26T01:17:13.670Z,5.68
2022-12-26T01:19:39.989Z,7.18
2022-12-26T01:22:06.482Z,5.47
2022-12-26T01:24:34.001Z,7.43
2022-12-26T01:27:01.047Z,6.38
2022-12-26T01:29:27.354Z,6.82
2022-12-26T01:31:53.937Z,5.97
2022-12-26T01:34:20.560Z,5.68
2022-12-26T01:36:47.075Z,5.45
2022-12-26T01:39:13.387Z,5.45
2022-12-26T01:41:39.707Z,6.47
2022-12-26T01:44:06.247Z,6.45
2022-12-26T01:46:32.626Z,6.53
2022-12-26T01:48:59.682Z,6.20
2022-12-26T01:51:25.994Z,6.72
2022-12-26T01:53:52.539Z,6.72
2022-12-26T01:56:19.107Z,5.63
2022-12-26T01:58:45.411Z,5.88
2022-12-26T02:01:12.230Z,6.10
2022-12-26T02:03:39.349Z,6.00
2022-12-26T02:06:06.168Z,6.53
2022-12-26T02:08:33.544Z,5.72
2022-12-26T02:11:01.619Z,6.47
2022-12-26T02:13:28.135Z,6.05
2022-12-26T02:15:55.015Z,5.28
2022-12-26T02:18:22.489Z,5.97
2022-12-26T02:20:48.962Z,6.63
2022-12-26T02:23:16.618Z,5.15
2022-12-26T02:25:43.112Z,6.78
2022-12-26T02:28:09.873Z,6.13
2022-12-26T02:30:36.818Z,5.28
2022-12-26T02:33:03.143Z,6.70
2022-12-26T02:35:32.136Z,6.25
2022-12-26T02:37:58.483Z,7.03
2022-12-26T02:40:25.093Z,7.20
2022-12-26T02:42:51.751Z,6.45
2022-12-26T02:45:18.148Z,5.88
2022-12-26T02:47:46.685Z,5.35
2022-12-26T02:50:13.484Z,5.63
2022-12-26T02:52:39.795Z,6.35
2022-12-26T02:55:06.164Z,5.93
2022-12-26T02:57:32.808Z,5.00
2022-12-26T02:59:59.538Z,5.93
2022-12-26T03:02:25.972Z,5.20
2022-12-26T03:04:52.491Z,7.15
2022-12-26T03:07:18.998Z,6.35
2022-12-26T03:09:45.467Z,5.88
2022-12-26T03:12:11.784Z,5.60
2022-12-26T03:14:38.530Z,5.88
2022-12-26T03:17:05.493Z,5.57
2022-12-26T03:19:31.975Z,5.90
2022-12-26T03:21:58.550Z,5.55
2022-12-26T03:24:25.760Z,5.18
2022-12-26T03:26:52.211Z,6.72
2022-12-26T03:29:19.184Z,6.53
2022-12-26T03:31:46.065Z,5.82
2022-12-26T03:34:12.668Z,6.43
2022-12-26T03:36:39.014Z,5.72
2022-12-26T03:39:05.609Z,5.70
2022-12-26T03:41:32.122Z,5.82
2022-12-26T03:43:58.875Z,6.28
2022-12-26T03:46:25.721Z,5.13
2022-12-26T03:48:52.255Z,4.88
2022-12-26T03:51:19.178Z,5.57
2022-12-26T03:53:45.832Z,5.35
2022-12-26T03:56:12.338Z,5.35
2022-12-26T03:58:39.278Z,6.25
2022-12-26T04:01:06.105Z,5.53
2022-12-26T04:03:33.147Z,6.35
2022-12-26T04:06:00.459Z,5.80
2022-12-26T04:08:27.524Z,5.80
2022-12-26T04:10:54.375Z,4.55
2022-12-26T04:16:05.272Z,4.38
2022-12-26T04:18:32.413Z,4.85
2022-12-26T04:20:58.713Z,5.57
2022-12-26T04:23:25.381Z,4.90
2022-12-26T04:25:52.484Z,5.38
2022-12-26T04:28:18.807Z,5.65
2022-12-26T04:30:45.657Z,5.28
2022-12-26T04:33:12.072Z,5.13
2022-12-26T04:35:38.537Z,5.43
2022-12-26T04:38:05.778Z,4.80
2022-12-26T04:40:32.253Z,5.45
2022-12-26T04:42:59.163Z,5.13
2022-12-26T04:45:25.927Z,5.07
2022-12-26T04:47:52.257Z,5.38
2022-12-26T04:50:18.631Z,4.38
2022-12-26T04:52:45.035Z,4.85
2022-12-26T04:55:11.596Z,5.53
2022-12-26T04:57:37.923Z,4.80
2022-12-26T05:00:04.644Z,4.88
2022-12-26T05:02:33.383Z,4.85
2022-12-26T05:04:59.833Z,4.82
2022-12-26T05:07:26.268Z,4.93
2022-12-26T05:09:53.292Z,4.82
2022-12-26T05:12:19.928Z,5.15
2022-12-26T05:14:46.345Z,4.82
2022-12-26T05:17:13.422Z,5.00
2022-12-26T05:19:39.736Z,4.78
2022-12-26T05:22:06.358Z,5.07
2022-12-26T05:24:32.868Z,5.25
2022-12-26T05:26:59.552Z,5.22
2022-12-26T05:29:26.479Z,4.97
2022-12-26T05:31:53.247Z,4.75
2022-12-26T05:34:19.573Z,4.72
2022-12-26T05:36:45.843Z,4.95
2022-12-26T05:39:12.476Z,4.90
2022-12-26T05:41:39.437Z,5.50
2022-12-26T05:44:06.205Z,4.93
2022-12-26T05:46:33.213Z,4.60
2022-12-26T05:48:59.803Z,4.15
2022-12-26T05:51:27.300Z,4.75
2022-12-26T05:53:53.626Z,4.65
2022-12-26T05:56:20.049Z,4.07
2022-12-26T05:58:46.450Z,4.45
2022-12-26T06:01:13.188Z,3.85
2022-12-26T06:03:39.779Z,4.75
2022-12-26T06:06:06.339Z,6.15
2022-12-26T06:08:33.111Z,4.95
2022-12-26T06:10:59.976Z,4.20
2022-12-26T06:13:26.415Z,4.53
2022-12-26T06:15:56.172Z,4.28
2022-12-26T06:18:22.570Z,4.90
2022-12-26T06:20:49.817Z,5.03
2022-12-26T06:23:16.136Z,6.05
2022-12-26T06:25:42.879Z,5.00
2022-12-26T06:28:09.286Z,4.30
2022-12-26T06:30:36.038Z,4.15
2022-12-26T06:33:05.997Z,4.32
2022-12-26T06:35:33.002Z,4.75
2022-12-26T06:37:59.396Z,3.75
2022-12-26T06:40:28.395Z,5.03
2022-12-26T06:42:55.245Z,4.47
2022-12-26T06:45:22.493Z,3.80
2022-12-26T06:47:48.823Z,4.45
2022-12-26T06:50:15.652Z,4.88
2022-12-26T06:52:41.968Z,4.45
2022-12-26T06:55:08.602Z,4.32
2022-12-26T06:57:35.583Z,5.38
2022-12-26T07:00:02.175Z,4.88
2022-12-26T07:02:28.980Z,4.47
2022-12-26T07:04:55.634Z,5.18
2022-12-26T07:07:22.003Z,4.03
2022-12-26T07:09:48.721Z,5.57
2022-12-26T07:12:15.281Z,3.63
2022-12-26T07:14:41.765Z,4.07
2022-12-26T07:17:09.228Z,4.20
2022-12-26T07:19:36.367Z,5.15
2022-12-26T07:22:02.999Z,3.90
2022-12-26T07:24:29.407Z,4.95
2022-12-26T07:26:56.061Z,4.05
2022-12-26T07:29:22.415Z,3.92
2022-12-26T07:31:48.936Z,5.55
2022-12-26T07:34:15.383Z,3.85
2022-12-26T07:36:42.102Z,4.55
2022-12-26T07:39:08.765Z,4.20
2022-12-26T07:41:35.917Z,4.75
2022-12-26T07:44:03.761Z,4.85
2022-12-26T07:46:30.496Z,4.00
2022-12-26T07:48:56.974Z,3.58
2022-12-26T07:51:23.806Z,4.18
2022-12-26T07:56:34.561Z,4.20
2022-12-26T07:59:01.025Z,4.38
2022-12-26T08:01:27.865Z,4.55
2022-12-26T08:03:54.387Z,3.78
2022-12-26T08:06:20.716Z,4.28
2022-12-26T08:08:51.113Z,3.35
2022-12-26T08:13:44.265Z,4.78
2022-12-26T08:16:11.002Z,3.85
2022-12-26T08:18:37.810Z,4.05
2022-12-26T08:21:04.286Z,4.18
2022-12-26T08:23:31.068Z,3.70
2022-12-26T08:25:57.402Z,4.97
2022-12-26T08:28:23.898Z,3.95
2022-12-26T08:30:50.413Z,4.38
2022-12-26T08:33:16.748Z,4.53
2022-12-26T08:35:43.734Z,3.42
2022-12-26T08:38:10.113Z,4.35
2022-12-26T08:40:45.002Z,4.18
2022-12-26T08:43:30.257Z,3.70
2022-12-26T08:45:58.325Z,3.53
2022-12-26T08:48:24.695Z,4.13
2022-12-26T08:50:51.118Z,3.88
2022-12-26T08:53:17.969Z,3.58
2022-12-26T08:55:44.637Z,4.88
2022-12-26T08:58:11.217Z,3.83
2022-12-26T09:00:38.343Z,3.53
2022-12-26T09:03:05.256Z,4.40
2022-12-26T09:05:31.660Z,3.33
2022-12-26T09:07:58.052Z,3.70
2022-12-26T09:10:24.590Z,3.33
2022-12-26T09:12:51.909Z,3.97
2022-12-26T09:15:18.287Z,3.90
2022-12-26T09:17:44.633Z,4.15
2022-12-26T09:20:11.768Z,3.50
2022-12-26T09:22:38.486Z,3.67
2022-12-26T09:25:05.250Z,4.85
2022-12-26T09:27:31.784Z,4.97
2022-12-26T09:29:58.112Z,4.25
2022-12-26T09:32:24.960Z,4.47
2022-12-26T09:34:53.689Z,3.85
2022-12-26T09:37:22.493Z,4.25
2022-12-26T09:39:48.836Z,4.63
2022-12-26T09:42:15.234Z,4.05
2022-12-26T09:44:41.534Z,3.67
2022-12-26T09:47:08.242Z,3.80
2022-12-26T09:49:34.748Z,3.97
2022-12-26T09:52:01.538Z,3.70
2022-12-26T09:54:28.476Z,3.88
2022-12-26T09:57:03.428Z,4.00
2022-12-26T09:59:31.467Z,3.70
2022-12-26T10:01:58.006Z,4.40
2022-12-26T10:04:29.054Z,3.88
2022-12-26T10:06:56.651Z,4.05
2022-12-26T10:09:23.693Z,4.35
2022-12-26T10:11:50.684Z,3.92
2022-12-26T10:14:21.644Z,3.90
2022-12-26T10:16:48.458Z,3.83
2022-12-26T10:19:14.889Z,4.05
2022-12-26T10:21:41.357Z,4.10
2022-12-26T10:24:07.944Z,4.00
2022-12-26T10:26:34.750Z,3.60
2022-12-26T10:29:01.802Z,3.67
2022-12-26T10:31:28.408Z,4.25
2022-12-26T10:33:55.087Z,3.78
2022-12-26T10:36:21.645Z,4.40
2022-12-26T10:38:48.537Z,3.90
2022-12-26T10:41:15.237Z,4.38
2022-12-26T10:43:41.597Z,3.72
2022-12-26T10:46:07.940Z,4.05
2022-12-26T10:48:34.704Z,4.68
2022-12-26T10:51:01.598Z,3.67
2022-12-26T10:53:27.920Z,3.70
2022-12-26T10:55:54.447Z,4.03
2022-12-26T10:58:20.930Z,3.72
2022-12-26T11:00:47.400Z,3.85
2022-12-26T11:03:14.119Z,3.92
2022-12-26T11:06:06.482Z,3.83
2022-12-26T11:08:27.627Z,4.03
2022-12-26T11:10:54.314Z,3.97
2022-12-26T11:13:20.669Z,3.92
2022-12-26T11:15:47.442Z,3.95
2022-12-26T11:18:15.875Z,4.38
2022-12-26T11:20:42.627Z,3.50
2022-12-26T11:23:09.354Z,4.65
2022-12-26T11:25:36.003Z,3.88
2022-12-26T11:28:02.648Z,3.72
2022-12-26T11:30:29.189Z,4.30
2022-12-26T11:32:56.106Z,4.32
2022-12-26T11:35:22.815Z,4.50
2022-12-26T11:37:50.015Z,4.15
2022-12-26T11:40:16.576Z,4.03
2022-12-26T11:42:43.007Z,4.53
2022-12-26T11:45:09.390Z,3.67
2022-12-26T11:47:36.362Z,4.43
2022-12-26T11:50:02.709Z,3.97
2022-12-26T11:52:29.735Z,4.05
2022-12-26T11:54:56.186Z,3.97
2022-12-26T11:57:23.014Z,3.83
2022-12-26T11:59:49.287Z,4.25
2022-12-26T12:02:15.797Z,3.83
2022-12-26T12:04:42.173Z,4.05
2022-12-26T12:07:08.911Z,3.92
2022-12-26T12:09:35.677Z,3.65
2022-12-26T12:12:02.900Z,4.50
2022-12-26T12:14:29.278Z,3.35
2022-12-26T12:16:56.007Z,4.47
2022-12-26T12:19:23.283Z,4.22
2022-12-26T12:21:49.731Z,4.47
2022-12-26T12:24:16.607Z,4.50
2022-12-26T12:26:43.154Z,3.58
2022-12-26T12:29:09.582Z,4.57
2022-12-26T12:31:36.474Z,3.33
2022-12-26T12:34:03.874Z,4.50
2022-12-26T12:36:30.222Z,4.10
2022-12-26T12:38:56.902Z,3.83
2022-12-26T12:41:23.794Z,3.55
2022-12-26T12:43:50.443Z,4.00
2022-12-26T12:46:17.336Z,3.65
2022-12-26T12:48:45.116Z,4.82
2022-12-26T12:51:11.992Z,4.28
2022-12-26T12:53:38.860Z,8.75
2022-12-26T12:56:05.732Z,6.25
2022-12-26T12:58:32.482Z,4.15
2022-12-26T13:00:59.605Z,5.00
2022-12-26T13:03:26.344Z,5.20
2022-12-26T13:05:52.752Z,16.63
2022-12-26T13:08:19.497Z,212.57
2022-12-26T13:10:46.675Z,233.80
2022-12-26T13:13:13.586Z,220.68
2022-12-26T13:15:40.068Z,192.25
2022-12-26T13:18:07.259Z,157.45
2022-12-26T13:20:34.165Z,140.15
2022-12-26T13:23:01.289Z,128.23
2022-12-26T13:25:27.967Z,116.78
2022-12-26T13:27:54.419Z,107.15
2022-12-26T13:30:20.800Z,101.40
2022-12-26T13:32:48.180Z,94.25
2022-12-26T13:38:00.711Z,85.95
2022-12-26T13:40:28.052Z,83.93
2022-12-26T13:42:54.523Z,277.02
2022-12-26T13:45:20.909Z,285.90
2022-12-26T13:47:49.953Z,256.40
2022-12-26T13:50:16.894Z,232.25
2022-12-26T13:52:43.257Z,214.18
2022-12-26T13:55:09.879Z,198.85
2022-12-26T13:57:36.839Z,192.52
2022-12-26T14:00:03.925Z,180.75
2022-12-26T14:02:58.693Z,295.92
2022-12-26T14:05:19.740Z,308.83
2022-12-26T14:07:47.286Z,283.33
2022-12-26T14:13:02.517Z,251.40
2022-12-26T14:17:56.251Z,223.82
2022-12-26T14:20:22.879Z,209.43
2022-12-26T14:22:49.766Z,213.23
2022-12-26T14:25:17.466Z,209.85
2022-12-26T14:27:43.979Z,207.98
2022-12-26T14:32:57.246Z,201.38
2022-12-26T14:35:24.203Z,191.07
2022-12-26T14:37:51.315Z,191.07
2022-12-26T14:40:18.036Z,189.35
2022-12-26T14:42:44.553Z,186.63
2022-12-26T14:45:11.258Z,183.57
2022-12-26T14:47:38.043Z,179.80
2022-12-26T14:50:04.835Z,177.73
2022-12-26T14:52:34.520Z,175.98
2022-12-26T14:55:03.855Z,174.70
2022-12-26T14:57:32.270Z,175.10
2022-12-26T15:00:03.427Z,352.50
2022-12-26T15:02:30.933Z,555.10
2022-12-26T15:04:57.848Z,488.30
2022-12-26T15:07:24.431Z,417.70
2022-12-26T15:09:50.980Z,386.90
2022-12-26T15:12:17.776Z,369.65
2022-12-26T15:14:44.754Z,340.85
2022-12-26T15:17:11.467Z,333.67
2022-12-26T15:19:38.025Z,325.63
2022-12-26T15:22:05.282Z,316.33
2022-12-26T15:25:16.519Z,310.75
2022-12-26T15:27:19.099Z,295.02
2022-12-26T15:29:46.042Z,301.17
2022-12-26T15:32:13.180Z,288.77
2022-12-26T15:34:39.916Z,283.67
2022-12-26T15:37:07.497Z,261.17
2022-12-26T15:39:34.179Z,249.25
2022-12-26T15:42:01.168Z,246.40
2022-12-26T15:44:28.029Z,230.45
2022-12-26T15:46:54.536Z,227.95
2022-12-26T15:49:21.431Z,216.57
2022-12-26T15:51:55.413Z,207.20
2022-12-26T15:54:23.674Z,199.55
2022-12-26T15:56:50.495Z,287.58
2022-12-26T15:59:17.836Z,466.48
2022-12-26T16:01:44.518Z,384.15
2022-12-26T16:04:11.471Z,340.23
2022-12-26T16:06:38.596Z,307.30
2022-12-26T16:09:05.191Z,278.52
2022-12-26T16:11:32.436Z,327.63
2022-12-26T16:13:59.377Z,397.40
2022-12-26T16:16:26.409Z,399.75
2022-12-26T16:18:53.325Z,374.45
2022-12-26T16:24:07.681Z,341.65
2022-12-26T16:26:34.235Z,329.50
2022-12-26T16:29:00.732Z,393.35
2022-12-26T16:37:03.170Z,392.42
2022-12-26T16:39:30.039Z,390.95
2022-12-26T16:41:56.456Z,376.15
2022-12-26T16:44:28.319Z,373.38
2022-12-26T16:46:57.457Z,367.25
2022-12-26T16:49:23.874Z,361.35
2022-12-26T16:51:50.249Z,362.98
2022-12-26T16:54:17.600Z,353.75
2022-12-26T16:56:44.322Z,347.67
2022-12-26T16:59:15.467Z,350.52
2022-12-26T17:01:43.930Z,341.38
2022-12-26T17:04:10.545Z,340.95
2022-12-26T17:06:36.957Z,342.75
2022-12-26T17:09:03.397Z,362.70
2022-12-26T17:11:30.104Z,357.60
2022-12-26T17:13:56.928Z,349.83
2022-12-26T17:16:23.258Z,348.17
2022-12-26T17:18:49.745Z,335.95
2022-12-26T17:21:16.424Z,322.95
2022-12-26T17:23:43.981Z,308.73
2022-12-26T17:26:10.276Z,292.63
2022-12-26T17:28:37.492Z,272.70
2022-12-26T17:31:04.432Z,252.98
2022-12-26T17:33:31.034Z,246.23
2022-12-26T17:38:44.054Z,233.15
2022-12-26T17:41:12.395Z,230.32
2022-12-26T17:43:39.156Z,229.07
2022-12-26T17:46:06.691Z,225.50
2022-12-26T17:48:33.108Z,217.35
2022-12-26T17:51:00.101Z,215.07
2022-12-26T17:53:26.505Z,211.13
2022-12-26T17:55:53.361Z,210.18
2022-12-26T18:01:12.726Z,206.10
2022-12-26T18:06:07.567Z,202.10
2022-12-26T18:08:34.441Z,202.13
2022-12-26T18:11:01.027Z,195.63
2022-12-26T18:16:03.747Z,190.45
2022-12-26T18:18:30.623Z,189.57
2022-12-26T18:20:57.022Z,187.32
2022-12-26T18:23:24.017Z,184.60
2022-12-26T18:25:54.336Z,182.60
2022-12-26T18:28:21.223Z,180.65
2022-12-26T18:30:47.923Z,179.55
2022-12-26T18:33:14.760Z,177.43
2022-12-26T18:35:41.365Z,177.73
2022-12-26T18:38:08.461Z,173.45
2022-12-26T18:40:34.861Z,171.57
2022-12-26T18:43:01.649Z,172.57
2022-12-26T18:45:28.123Z,170.73
2022-12-26T18:47:54.963Z,166.35
2022-12-26T18:50:21.760Z,163.32
2022-12-26T18:52:53.343Z,157.50
2022-12-26T18:55:20.198Z,160.63
2022-12-26T18:57:46.588Z,156.10
2022-12-26T19:00:13.228Z,156.00
2022-12-26T19:02:40.137Z,150.82
2022-12-26T19:05:07.807Z,149.00
2022-12-26T19:07:34.823Z,145.80
2022-12-26T19:10:01.452Z,148.38
2022-12-26T19:12:28.553Z,145.95
2022-12-26T19:14:54.937Z,143.73
2022-12-26T19:17:21.315Z,138.13
2022-12-26T19:19:47.755Z,141.38
2022-12-26T19:22:14.070Z,139.35
2022-12-26T19:24:40.425Z,134.13
2022-12-26T19:27:07.641Z,132.40
2022-12-26T19:29:34.620Z,128.98
2022-12-26T19:32:01.061Z,134.32
2022-12-26T19:34:27.712Z,130.55
2022-12-26T19:36:54.646Z,129.43
2022-12-26T19:39:21.388Z,126.43
2022-12-26T19:41:47.674Z,121.88
2022-12-26T19:44:14.393Z,121.32
2022-12-26T19:46:40.729Z,119.72
2022-12-26T19:49:07.676Z,121.22
2022-12-26T19:51:34.048Z,122.68
2022-12-26T19:54:00.419Z,118.85
2022-12-26T19:56:26.736Z,118.38
2022-12-26T19:58:56.773Z,115.70
2022-12-26T20:03:50.678Z,114.15
2022-12-26T20:06:17.503Z,113.88
2022-12-26T20:08:44.728Z,110.00
2022-12-26T20:11:11.134Z,107.40
2022-12-26T20:13:37.498Z,106.32
2022-12-26T20:18:45.787Z,102.30
2022-12-26T20:21:13.124Z,105.88
2022-12-26T20:23:39.472Z,102.88
2022-12-26T20:26:05.754Z,99.82
2022-12-26T20:28:32.166Z,99.45
2022-12-26T20:30:58.596Z,100.28
2022-12-26T20:33:26.087Z,100.38
2022-12-26T20:35:52.507Z,95.70
2022-12-26T20:38:19.246Z,94.18
2022-12-26T20:40:50.083Z,93.38
2022-12-26T20:43:16.870Z,91.75
2022-12-26T20:45:43.314Z,92.70
2022-12-26T20:48:09.886Z,90.47
2022-12-26T20:50:36.217Z,92.50
2022-12-26T20:53:02.534Z,89.00
2022-12-26T20:55:28.983Z,87.82
2022-12-26T20:57:55.337Z,86.03
2022-12-26T21:00:21.622Z,86.47
2022-12-26T21:02:48.116Z,86.75
2022-12-26T21:05:14.575Z,83.93
2022-12-26T21:07:41.339Z,81.90
2022-12-26T21:10:07.735Z,85.35
2022-12-26T21:12:34.135Z,80.47
2022-12-26T21:15:00.644Z,84.85
2022-12-26T21:17:27.323Z,80.07
2022-12-26T21:19:53.977Z,80.82
2022-12-26T21:22:20.408Z,78.68
2022-12-26T21:24:47.044Z,78.05
2022-12-26T21:27:13.313Z,75.88
2022-12-26T21:29:39.837Z,71.00
2022-12-26T21:32:06.196Z,75.07
2022-12-26T21:34:32.489Z,74.40
2022-12-26T21:36:58.819Z,73.35
2022-12-26T21:39:25.389Z,70.30
2022-12-26T21:41:51.780Z,72.40
2022-12-26T21:44:18.087Z,68.65
2022-12-26T21:46:44.532Z,70.80
2022-12-26T21:49:11.248Z,64.95
2022-12-26T21:51:37.911Z,68.95
2022-12-26T21:54:04.379Z,67.57
2022-12-26T21:56:30.843Z,64.55
2022-12-26T21:58:57.253Z,65.55
2022-12-26T22:01:23.756Z,62.88
2022-12-26T22:03:50.146Z,61.15
2022-12-26T22:06:16.465Z,62.45
2022-12-26T22:08:43.091Z,59.08
2022-12-26T22:11:09.467Z,59.83
2022-12-26T22:13:36.011Z,59.65
2022-12-26T22:16:02.396Z,56.70
2022-12-26T22:18:29.227Z,59.05
2022-12-26T22:20:55.590Z,59.42
2022-12-26T22:23:21.891Z,56.78
2022-12-26T22:25:48.181Z,56.60
2022-12-26T22:28:20.159Z,54.75
2022-12-26T22:30:49.487Z,54.55
2022-12-26T22:33:15.898Z,53.83
2022-12-26T22:35:42.264Z,52.67
2022-12-26T22:38:08.883Z,52.55
2022-12-26T22:40:35.486Z,53.58
2022-12-26T22:43:02.470Z,50.47
2022-12-26T22:45:28.857Z,52.35
2022-12-26T22:47:55.296Z,52.05
2022-12-26T22:50:21.840Z,49.40
2022-12-26T22:52:48.780Z,49.25
2022-12-26T22:55:15.240Z,46.13
2022-12-26T22:57:41.664Z,47.22
2022-12-26T23:00:09.685Z,46.13
2022-12-26T23:02:37.205Z,44.42
2022-12-26T23:05:04.261Z,45.65
2022-12-26T23:07:31.605Z,45.67
2022-12-26T23:09:57.932Z,44.88
2022-12-26T23:12:24.334Z,43.97
2022-12-26T23:14:50.698Z,44.28
2022-12-26T23:17:17.841Z,42.85
2022-12-26T23:19:44.319Z,43.25
2022-12-26T23:22:11.110Z,40.13
2022-12-26T23:24:37.842Z,42.58
2022-12-26T23:27:11.692Z,40.53
2022-12-26T23:29:38.193Z,40.05
2022-12-26T23:32:04.926Z,39.58
2022-12-26T23:34:31.727Z,42.17
2022-12-26T23:36:58.585Z,40.00
2022-12-26T23:39:25.283Z,37.35
2022-12-26T23:41:51.746Z,38.70
2022-12-26T23:44:18.288Z,38.10
2022-12-26T23:46:44.640Z,35.88
2022-12-26T23:49:11.367Z,36.10
2022-12-26T23:51:38.327Z,35.20
2022-12-26T23:54:05.137Z,35.92
2022-12-26T23:56:31.583Z,35.03
2022-12-26T23:58:57.930Z,36.88
